Latest Coastal Weather Observations for Port Lincoln Airport

IDS60701

Issued at 3:35 pm CST Friday 1 August 2014 (issued every 10 minutes, with the page automatically refreshed every 10 minutes)

About coastal observations | Map of coastal stations | Coastal observations for SA | Marine services | Other Formats
Station Details ID: 018192 Name: PORT LINCOLN AWS Lat: -34.60 Lon: 135.88 Height: 8.5 m
Data from the previous 72 hours. | See also: Recent months at Port Lincoln Airport
Date/Time
CST
Temp

°C
Wind Pressure Rain
since 9am
mm
Weather Cloud Vis
km
Sea
Height
m
Swell
Dir
 
Speed
knots
Gust
knots
hPa Trend Height
m
Period
s
Dir
01/03:30pm 13.6 SSW 14 20 1024.9 - 0.0 - Partly cloudy 10 - - - -
01/03:00pm 13.5 SSW 16 23 1024.5 - 0.0 - - 10 - - - -
01/02:30pm 13.3 S 17 23 1024.1 - 0.0 - Partly cloudy 10 - - - -
01/02:00pm 13.8 SSW 16 23 1023.7 - 0.0 - Partly cloudy 10 - - - -
01/01:30pm 13.5 SSW 17 23 1023.6 - 0.0 - Partly cloudy 10 - - - -
01/01:00pm 13.0 SSW 18 23 1023.4 - 0.0 - Partly cloudy 10 - - - -
01/12:30pm 13.7 SW 19 23 1023.3 - 0.0 - Partly cloudy 10 - - - -
01/12:00pm 13.0 SSW 11 17 1023.2 - 0.0 - Partly cloudy 10 - - - -
01/11:30am 10.9 SW 17 26 1023.3 - 0.0 - Partly cloudy 10 - - - -
01/11:00am 12.0 SW 13 20 1022.8 - 0.0 - Partly cloudy 10 - - - -
01/10:30am 12.7 SW 17 25 1022.2 - 0.0 - Partly cloudy 10 - - - -
01/10:00am 12.5 SW 16 22 1021.6 - 0.0 - Partly cloudy 10 - - - -
01/09:30am 12.0 SW 13 17 1020.9 - 0.0 - Partly cloudy 10 - - - -
01/09:00am 10.8 WSW 12 17 1020.4 - 3.2 - - 10 - - - -
01/08:30am 9.5 WSW 15 19 1019.9 - 3.2 - Partly cloudy 10 - - - -
01/08:00am 9.2 SW 12 16 1019.2 - 3.2 - - 10 - - - -
01/07:30am 8.8 SW 12 17 1018.7 - 3.2 - Partly cloudy 10 - - - -
01/07:00am 8.1 WSW 10 15 1018.2 - 3.2 - Partly cloudy 10 - - - -
01/06:30am 7.5 W 11 13 1017.6 - 3.0 - Partly cloudy 10 - - - -
01/06:00am 7.5 SW 15 23 1017.1 - 3.0 Recent precip. Cloudy 10 - - - -
01/05:30am 8.8 WSW 15 19 1016.2 - 2.6 - - 10 - - - -
01/05:00am 9.2 SW 16 24 1015.9 - 2.6 - Partly cloudy 10 - - - -
01/04:30am 8.3 WSW 15 20 1015.3 - 2.6 - Partly cloudy 10 - - - -
01/04:00am 7.8 WSW 15 20 1015.4 - 2.4 - Partly cloudy 10 - - - -
01/03:30am 7.6 W 14 18 1014.8 - 2.4 - Partly cloudy 10 - - - -
01/03:00am 6.7 W 14 18 1014.7 - 2.4 Recent precip. Mostly clear 10 - - - -
01/02:30am 8.3 WSW 16 22 1014.9 - 2.2 - Partly cloudy 10 - - - -
01/02:00am 9.0 WSW 16 23 1014.3 - 2.2 - Partly cloudy 10 - - - -
01/01:30am 8.9 WSW 16 23 1014.0 - 2.2 - - 10 - - - -
01/01:00am 8.5 WSW 14 18 1013.9 - 2.2 - - 10 - - - -
01/12:30am 7.3 W 12 17 1013.9 - 2.2 - - 10 - - - -
01/12:00am 7.5 SW 16 25 1014.2 - 2.2 Rain Mostly cloudy 9 - - - -
 
Date/Time
CST
Temp

°C
Wind Pressure Rain
since 9am
mm
Weather Cloud Vis
km
Sea
Height
m
Swell
Dir
 
Speed
knots
Gust
knots
hPa Trend Height
m
Period
s
Dir
31/11:30pm 7.5 W 12 15 1013.9 - 1.8 - Partly cloudy 10 - - - -
31/11:00pm 8.0 WSW 15 19 1013.9 - 1.8 - Partly cloudy 10 - - - -
31/10:30pm 7.5 W 14 19 1013.6 - 1.8 - - 10 - - - -
31/10:00pm 7.7 W 13 17 1013.5 - 1.8 - Partly cloudy 10 - - - -
31/09:30pm 7.8 SW 9 13 1013.5 - 1.6 - Partly cloudy 10 - - - -
31/09:00pm 7.7 W 16 21 1013.0 - 1.4 - Mostly cloudy 10 - - - -
31/08:30pm 8.7 W 15 27 1013.3 - 1.4 - Partly cloudy 10 - - - -
31/08:00pm 9.0 WSW 14 19 1012.6 - 1.4 - - 10 - - - -
31/07:30pm 8.9 WSW 14 18 1012.4 - 1.4 - Partly cloudy 10 - - - -
31/07:00pm 8.1 W 12 17 1012.0 - 1.4 - Partly cloudy 10 - - - -
31/06:30pm 8.0 W 13 16 1011.5 - 1.4 - Partly cloudy 10 - - - -
31/06:00pm 8.1 W 15 21 1011.2 - 1.4 - Partly cloudy 10 - - - -
31/05:30pm 9.9 W 17 22 1010.4 - 1.4 - Partly cloudy 10 - - - -
31/05:00pm 10.3 WSW 21 28 1010.2 - 1.4 - Partly cloudy 10 - - - -
31/04:30pm 10.7 WSW 22 31 1009.8 - 1.4 - - 10 - - - -
31/04:00pm 10.4 WSW 19 26 1009.5 - 1.4 - Partly cloudy 10 - - - -
31/03:30pm 10.2 WSW 22 29 1008.8 - 1.2 - Partly cloudy 10 - - - -
31/03:00pm 11.3 WSW 21 32 1008.3 - 1.2 Rain Mostly cloudy 10 - - - -
31/02:30pm 11.2 WSW 22 33 1007.5 - 1.0 - Partly cloudy 10 - - - -
31/02:00pm 12.4 W 24 35 1006.7 - 1.0 - Partly cloudy 6 - - - -
31/01:30pm 12.6 W 26 37 1006.3 - 1.0 - Partly cloudy 10 - - - -
31/01:00pm 14.4 W 24 35 1005.8 - 0.8 - Partly cloudy 10 - - - -
31/12:30pm 13.7 W 22 30 1006.0 - 0.8 - Partly cloudy 10 - - - -
31/12:00pm 12.5 W 19 27 1006.3 - 0.8 Recent precip. Cloudy 9 - - - -
31/11:30am 11.7 WSW 21 31 1006.6 - 0.8 - Partly cloudy 3 - - - -
31/11:00am 11.8 WSW 22 29 1006.3 - 0.6 - Partly cloudy 5 - - - -
31/10:30am 12.6 W 19 30 1005.9 - 0.4 - Partly cloudy 10 - - - -
31/10:00am 12.2 WSW 20 28 1005.5 - 0.2 - Partly cloudy 7 - - - -
31/09:30am 16.3 WNW 30 43 1004.4 - 0.0 - Partly cloudy 10 - - - -
31/09:00am 16.0 NW 29 39 1003.9 - 0.0 - Mostly clear 10 - - - -
31/08:30am 15.3 NW 27 34 1004.1 - 0.0 - - 10 - - - -
31/08:00am 14.7 WNW 23 31 1004.4 - 0.0 - - 10 - - - -
31/07:30am 14.6 NW 25 33 1004.3 - 0.0 - - 10 - - - -
31/07:00am 14.5 WNW 27 36 1004.5 - 0.0 - - 10 - - - -
31/06:30am 14.8 WNW 28 41 1004.6 - 0.0 - - 10 - - - -
31/06:00am 14.9 WNW 27 38 1004.9 - 0.0 - Partly cloudy 10 - - - -
31/05:30am 14.9 WNW 24 31 1005.3 - 0.0 - Partly cloudy 10 - - - -
31/05:00am 14.7 WNW 23 32 1005.6 - 0.0 - Partly cloudy 10 - - - -
31/04:30am 13.9 NW 16 25 1006.0 - 0.0 - Partly cloudy 10 - - - -
31/04:00am 13.1 NW 15 20 1006.5 - 0.0 - Partly cloudy 10 - - - -
31/03:30am 13.1 NW 17 24 1006.8 - 0.0 - - 10 - - - -
31/03:00am 13.2 NW 15 21 1007.2 - 0.0 - - 10 - - - -
31/02:30am 13.4 NW 15 19 1007.6 - 0.0 - - 10 - - - -
31/02:00am 13.5 NW 15 22 1008.1 - 0.0 - - 10 - - - -
31/01:30am 13.5 NNW 13 19 1008.5 - 0.0 - - 10 - - - -
31/01:00am 14.4 NW 16 22 1008.9 - 0.0 - - 10 - - - -
31/12:30am 14.6 NW 16 23 1009.4 - 0.0 - - 10 - - - -
31/12:00am 15.0 WNW 20 30 1009.8 - 0.0 - - 10 - - - -
 
Date/Time
CST
Temp

°C
Wind Pressure Rain
since 9am
mm
Weather Cloud Vis
km
Sea
Height
m
Swell
Dir
 
Speed
knots
Gust
knots
hPa Trend Height
m
Period
s
Dir
30/11:30pm 14.5 WNW 12 18 1010.2 - 0.0 - - 10 - - - -
30/11:00pm 14.0 NW 12 16 1010.7 - 0.0 - - 10 - - - -
30/10:30pm 14.1 NW 14 19 1011.1 - 0.0 - - 10 - - - -
30/10:00pm 14.5 NW 16 20 1011.7 - 0.0 - - 10 - - - -
30/09:30pm 14.3 NW 15 21 1012.0 - 0.0 - - 10 - - - -
30/09:00pm 14.4 NW 15 20 1012.4 - 0.0 - - 10 - - - -
30/08:30pm 14.4 NW 13 18 1012.8 - 0.0 - - 10 - - - -
30/08:00pm 14.5 NW 13 19 1013.1 - 0.0 - Partly cloudy 10 - - - -
30/07:30pm 14.8 NW 15 21 1013.4 - 0.0 - Partly cloudy 10 - - - -
30/07:00pm 15.2 NW 14 22 1013.5 - 0.0 - Cloudy 10 - - - -
30/06:30pm 14.8 NNW 12 16 1013.6 - 0.0 - Partly cloudy 10 - - - -
30/06:00pm 14.7 NNW 11 17 1013.3 - 0.0 - Mostly cloudy 10 - - - -
30/05:30pm 15.0 NNW 12 17 1013.4 - 0.0 - Partly cloudy 10 - - - -
30/05:00pm 16.2 NNW 16 22 1013.3 - 0.0 - - 10 - - - -
30/04:30pm 16.9 NNW 15 23 1013.5 - 0.0 - - 10 - - - -
30/04:00pm 17.3 NW 16 23 1013.6 - 0.0 - - 10 - - - -
30/03:30pm 17.0 NW 17 24 1013.8 - 0.0 - Partly cloudy 10 - - - -
30/03:00pm 17.2 NW 19 28 1013.9 - 0.0 - - 10 - - - -
30/02:30pm 17.5 NW 19 26 1014.5 - 0.0 - Partly cloudy 10 - - - -
30/02:00pm 16.9 NW 19 25 1014.8 - 0.0 - Partly cloudy 10 - - - -
30/01:30pm 17.1 NW 21 27 1015.3 - 0.0 - Partly cloudy 10 - - - -
30/01:00pm 17.5 NW 19 23 1015.5 - 0.0 - Partly cloudy 10 - - - -
30/12:30pm 18.2 NW 17 23 1015.9 - 0.0 - Partly cloudy 10 - - - -
30/12:00pm 18.2 WNW 16 21 1016.6 - 0.0 - Mostly clear 10 - - - -
30/11:30am 17.5 WNW 16 21 1017.2 - 0.0 - Partly cloudy 10 - - - -
30/11:00am 17.0 WNW 16 23 1017.6 - 0.0 - Partly cloudy 10 - - - -
30/10:30am 16.6 WNW 16 22 1017.9 - 0.0 - - 10 - - - -
30/10:00am 14.6 WNW 15 21 1018.3 - 0.0 - Partly cloudy 8 - - - -
30/09:30am 16.0 WNW 14 20 1018.3 - 0.0 - Partly cloudy 10 - - - -
30/09:00am 15.2 WNW 13 18 1018.3 - 1.6 Recent precip. Mostly cloudy 10 - - - -
30/08:30am 14.1 WNW 13 16 1018.3 - 1.6 - Partly cloudy 10 - - - -
30/08:00am 14.6 WNW 11 15 1018.2 - 1.4 - Partly cloudy 10 - - - -
30/07:30am 14.7 WNW 12 19 1018.0 - 1.4 - Partly cloudy 10 - - - -
30/07:00am 14.6 WNW 13 17 1017.6 - 1.4 - Partly cloudy 10 - - - -
30/06:30am 14.6 NW 10 13 1017.7 - 1.4 - Partly cloudy 10 - - - -
30/06:00am 14.5 NW 12 15 1017.6 - 1.4 - Mostly cloudy 10 - - - -
30/05:30am 14.5 NW 13 16 1017.1 - 1.4 - Partly cloudy 10 - - - -
30/05:00am 14.4 NW 15 21 1017.1 - 1.4 - - 10 - - - -
30/04:30am 14.1 WNW 9 12 1017.2 - 1.2 - Partly cloudy 5 - - - -
30/04:00am 14.1 NNW 9 12 1017.1 - 1.0 - Cloudy 10 - - - -
30/03:30am 13.9 NW 13 17 1017.3 - 1.0 - Partly cloudy 10 - - - -
30/03:00am 14.0 NNW 12 16 1017.6 - 1.0 - Cloudy 10 - - - -
30/02:30am 13.4 NW 10 12 1017.8 - 1.0 - Cloudy 10 - - - -
30/02:00am 13.0 NW 8 11 1018.2 - 1.0 - Partly cloudy 10 - - - -
30/01:30am 13.1 NW 10 11 1018.5 - 1.0 - Partly cloudy 10 - - - -
30/01:00am 13.9 WNW 11 16 1018.5 - 1.0 - Partly cloudy 10 - - - -
30/12:30am 14.3 WNW 13 19 1018.6 - 1.0 - Partly cloudy 9 - - - -
30/12:00am 14.3 WNW 11 13 1018.5 - 1.0 - Cloudy 10 - - - -
 
Date/Time
CST
Temp

°C
Wind Pressure Rain
since 9am
mm
Weather Cloud Vis
km
Sea
Height
m
Swell
Dir
 
Speed
knots
Gust
knots
hPa Trend Height
m
Period
s
Dir
29/11:30pm 14.1 WNW 12 15 1018.8 - 1.0 - Partly cloudy 10 - - - -
29/11:00pm 13.9 WNW 13 16 1018.8 - 1.0 - Partly cloudy 10 - - - -
29/10:30pm 13.8 W 12 19 1018.9 - 1.0 - Partly cloudy 10 - - - -
29/10:00pm 14.6 W 12 16 1018.9 - 0.6 - Partly cloudy 10 - - - -
29/09:30pm 14.2 WNW 12 17 1018.7 - 0.6 - Partly cloudy 10 - - - -
29/09:00pm 13.8 WNW 13 16 1018.6 - 0.6 - Partly cloudy 10 - - - -
29/08:30pm 13.9 WNW 15 19 1018.4 - 0.6 - Partly cloudy 6 - - - -
29/08:00pm 14.0 W 16 20 1018.1 - 0.6 - Partly cloudy 10 - - - -
29/07:30pm 14.1 WNW 17 23 1017.7 - 0.6 - Partly cloudy 10 - - - -
29/07:00pm 14.5 W 20 27 1017.7 - 0.6 - Partly cloudy 5 - - - -
29/06:30pm 14.9 WNW 15 21 1017.4 - 0.2 - Partly cloudy 4 - - - -
29/06:00pm 15.4 WNW 19 27 1016.9 - 0.2 Recent precip. Partly cloudy 10 - - - -
29/05:30pm 15.5 WNW 17 23 1017.0 - 0.2 - Partly cloudy 10 - - - -
29/05:00pm 15.4 WNW 18 25 1016.6 - 0.0 - Partly cloudy 6 - - - -
29/04:30pm 16.5 WNW 21 28 1016.3 - 0.0 - Partly cloudy 10 - - - -
29/04:00pm 16.8 WNW 22 33 1016.0 - 0.0 - - 10 - - - -

Other Formats:

Comma delimited format used in spreadsheet applications
http://www.bom.gov.au/fwo/IDS60701/IDS60701.95661.axf

JavaScript Object Notation format (JSON) in row-major order
http://www.bom.gov.au/fwo/IDS60701/IDS60701.95661.json